Time;durP1;ratioP1;P1;durP2;ratioP2;P2;SDS_P1;SDS_P2;PMS_P1;PMS_P2;Temp;Humidity;BMP_temperature;BMP_pressure;BME280_temperature;BME280_humidity;BME280_pressure;Samples;Min_cycle;Max_cycle;Signal;HPM_P1;HPM_P2
2021/12/25 00:02:14;;;;;;;0.70;0.60;;;-2.80;99.90;;;;;;5073399;28;20719;-77
2021/12/25 00:04:42;;;;;;;0.90;0.60;;;-2.80;99.90;;;;;;5073388;28;20637;-77
2021/12/25 00:07:08;;;;;;;1.50;0.60;;;-2.80;99.90;;;;;;5073279;28;20217;-77
2021/12/25 00:09:35;;;;;;;0.80;0.60;;;-2.90;99.90;;;;;;5073517;28;20217;-77
2021/12/25 00:12:02;;;;;;;1.23;0.80;;;-3.00;99.90;;;;;;5073110;28;20307;-77
2021/12/25 00:14:28;;;;;;;1.10;1.00;;;-3.00;99.90;;;;;;5073123;28;20651;-77
2021/12/25 00:16:57;;;;;;;0.70;0.70;;;-3.00;99.90;;;;;;5073096;28;20254;-77
2021/12/25 00:19:24;;;;;;;1.48;0.70;;;-3.00;99.90;;;;;;5072954;28;20197;-77
2021/12/25 00:21:51;;;;;;;2.35;0.80;;;-3.00;99.90;;;;;;5072660;28;20387;-77
2021/12/25 00:24:18;;;;;;;1.30;0.88;;;-3.10;99.90;;;;;;5072772;28;20284;-77
2021/12/25 00:26:53;;;;;;;1.35;0.80;;;-3.10;99.90;;;;;;5073191;28;20311;-77
2021/12/25 00:32:32;;;;;;;0.80;0.60;;;-3.10;99.90;;;;;;5062152;28;20217;-77
2021/12/25 00:34:58;;;;;;;1.27;0.82;;;-3.10;99.90;;;;;;5073203;28;20199;-78
2021/12/25 00:37:26;;;;;;;1.30;0.90;;;-3.10;99.90;;;;;;5073160;28;20239;-78
2021/12/25 00:39:55;;;;;;;1.13;0.70;;;-3.10;99.90;;;;;;5072900;28;20197;-77
2021/12/25 00:42:22;;;;;;;1.92;0.70;;;-3.10;99.90;;;;;;5072692;28;20277;-78
2021/12/25 00:44:49;;;;;;;1.70;0.80;;;-3.10;99.90;;;;;;5072730;28;20193;-77
2021/12/25 00:47:15;;;;;;;1.63;0.82;;;-3.10;99.90;;;;;;5072912;28;20604;-78
2021/12/25 00:49:42;;;;;;;1.98;0.70;;;-3.10;99.90;;;;;;5072709;28;20272;-78
2021/12/25 00:52:09;;;;;;;0.95;0.70;;;-3.20;99.90;;;;;;5072685;28;20308;-77
2021/12/25 00:54:37;;;;;;;2.00;0.85;;;-3.20;99.90;;;;;;5072695;28;20193;-77
2021/12/25 00:57:04;;;;;;;1.10;0.70;;;-3.20;99.90;;;;;;5072627;28;20185;-78
2021/12/25 00:59:30;;;;;;;2.15;0.70;;;-3.20;99.90;;;;;;5072438;28;20220;-78
2021/12/25 01:01:58;;;;;;;0.75;0.63;;;-3.20;99.90;;;;;;5072778;28;20303;-78
2021/12/25 01:04:25;;;;;;;1.85;0.90;;;-3.20;99.90;;;;;;5072483;28;20270;-77
2021/12/25 01:06:53;;;;;;;1.25;0.60;;;-3.20;99.90;;;;;;5072573;28;20224;-77
2021/12/25 01:09:19;;;;;;;4.10;0.77;;;-3.20;99.90;;;;;;5072832;28;20691;-77
2021/12/25 01:11:50;;;;;;;0.73;0.73;;;-3.20;99.90;;;;;;5074536;28;20304;-78
2021/12/25 01:14:26;;;;;;;1.83;0.70;;;-3.20;99.90;;;;;;5076275;28;20671;-78
2021/12/25 01:17:10;;;;;;;0.93;0.85;;;-3.20;99.90;;;;;;5076421;28;20196;-77
2021/12/25 01:19:53;;;;;;;5.65;0.95;;;-3.20;99.90;;;;;;5076239;28;20591;-77
2021/12/25 01:22:57;;;;;;;1.95;0.77;;;-3.20;99.90;;;;;;5076091;28;20236;-77
2021/12/25 01:28:42;;;;;;;1.55;0.60;;;-3.30;99.90;;;;;;5065655;28;20602;-77
2021/12/25 01:31:11;;;;;;;0.65;0.55;;;-3.30;99.90;;;;;;5075936;28;20189;-77
2021/12/25 01:34:19;;;;;;;4.32;0.75;;;-3.20;99.90;;;;;;5075989;28;20221;-77
2021/12/25 01:36:59;;;;;;;1.70;0.80;;;-3.30;99.90;;;;;;5075923;28;20579;-77
2021/12/25 01:39:41;;;;;;;0.80;0.60;;;-3.30;99.90;;;;;;5076048;28;20186;-77
2021/12/25 01:47:45;;;;;;;0.88;0.82;;;-3.30;99.90;;;;;;5075971;28;20276;-77
2021/12/25 01:47:49;;;;;;;1.60;0.85;;;-3.00;99.90;;;;;;5055894;28;20656;-77
2021/12/25 01:50:18;;;;;;;1.17;0.90;;;-3.40;99.90;;;;;;5055969;28;20217;-77
2021/12/25 01:52:45;;;;;;;2.28;1.10;;;-3.50;99.90;;;;;;5055595;28;20407;-77
2021/12/25 01:55:15;;;;;;;1.38;0.88;;;-3.50;99.90;;;;;;5055605;28;20218;-77
2021/12/25 01:57:42;;;;;;;1.27;1.00;;;-3.50;99.90;;;;;;5055501;28;20281;-77
2021/12/25 02:00:15;;;;;;;2.28;1.00;;;-3.50;99.90;;;;;;5055461;28;20239;-77
2021/12/25 02:02:42;;;;;;;1.33;0.70;;;-3.60;99.90;;;;;;5091405;28;20695;-77
2021/12/25 02:05:09;;;;;;;2.50;1.00;;;-3.50;99.90;;;;;;5095899;28;20276;-77
2021/12/25 02:07:36;;;;;;;3.38;1.00;;;-3.60;99.90;;;;;;5095608;28;20253;-77
2021/12/25 02:10:05;;;;;;;1.00;0.90;;;-3.60;99.90;;;;;;5095469;28;20227;-77
2021/12/25 02:12:33;;;;;;;1.38;0.80;;;-3.60;99.90;;;;;;5095677;28;20294;-78
2021/12/25 02:15:03;;;;;;;1.70;0.80;;;-3.50;99.90;;;;;;5095787;28;20545;-77
2021/12/25 02:17:54;;;;;;;1.63;0.70;;;-3.60;99.90;;;;;;5095436;28;20265;-77
2021/12/25 02:20:28;;;;;;;1.92;0.82;;;-3.60;99.90;;;;;;5095234;28;20196;-77
2021/12/25 02:23:01;;;;;;;2.97;0.85;;;-3.60;99.90;;;;;;5095223;28;20275;-77
2021/12/25 02:25:28;;;;;;;6.28;0.90;;;-3.70;99.90;;;;;;5095699;28;20615;-77
2021/12/25 02:27:55;;;;;;;1.42;0.90;;;-3.60;99.90;;;;;;5095500;28;20223;-77
2021/12/25 02:30:21;;;;;;;0.98;0.88;;;-3.70;99.90;;;;;;5095122;28;20279;-77
2021/12/25 02:32:48;;;;;;;1.40;1.05;;;-3.70;99.90;;;;;;5094981;28;20255;-77
2021/12/25 02:35:16;;;;;;;1.70;1.20;;;-3.70;99.90;;;;;;5094974;28;20227;-77
2021/12/25 02:37:45;;;;;;;1.05;0.85;;;-3.70;99.90;;;;;;5094994;28;20256;-77
2021/12/25 02:40:12;;;;;;;1.00;0.70;;;-3.70;99.90;;;;;;5095290;28;20200;-77
2021/12/25 02:42:39;;;;;;;3.47;1.25;;;-3.70;99.90;;;;;;5091217;28;20225;-77
2021/12/25 02:45:14;;;;;;;3.08;1.23;;;-3.70;99.90;;;;;;5074914;28;20196;-77
2021/12/25 02:47:42;;;;;;;1.27;1.13;;;-3.70;99.90;;;;;;5074501;28;20659;-78
2021/12/25 02:50:10;;;;;;;1.40;1.08;;;-3.70;99.90;;;;;;5074775;28;20198;-77
2021/12/25 02:52:36;;;;;;;2.55;1.00;;;-3.70;99.90;;;;;;5074577;28;20307;-77
2021/12/25 02:55:05;;;;;;;2.70;1.70;;;-3.70;99.90;;;;;;5074600;28;20274;-77
2021/12/25 02:57:32;;;;;;;1.40;0.90;;;-3.80;99.90;;;;;;5074499;28;20219;-77
2021/12/25 02:59:59;;;;;;;1.13;0.90;;;-3.70;99.90;;;;;;5074321;28;20204;-77
2021/12/25 03:02:25;;;;;;;1.40;1.00;;;-3.70;99.90;;;;;;5074526;28;20228;-77
2021/12/25 03:04:53;;;;;;;1.27;1.17;;;-3.80;99.90;;;;;;5074183;28;20231;-77
2021/12/25 03:07:19;;;;;;;1.15;1.02;;;-3.80;99.90;;;;;;5074027;28;20289;-77
2021/12/25 03:09:46;;;;;;;1.80;0.90;;;-3.70;99.90;;;;;;5074098;28;20252;-77
2021/12/25 03:12:15;;;;;;;1.42;1.00;;;-3.80;99.90;;;;;;5074134;28;20312;-77
2021/12/25 03:15:03;;;;;;;1.00;0.90;;;-3.90;99.90;;;;;;5074080;28;20644;-77
2021/12/25 03:17:30;;;;;;;2.17;0.90;;;-3.80;99.90;;;;;;5074077;28;20668;-77
2021/12/25 03:19:57;;;;;;;1.55;0.90;;;-3.90;99.90;;;;;;5074180;28;20312;-77
2021/12/25 03:22:24;;;;;;;5.13;1.30;;;-3.90;99.90;;;;;;5073711;28;20232;-77
2021/12/25 03:24:52;;;;;;;1.60;0.90;;;-3.90;99.90;;;;;;5073991;28;20193;-78
2021/12/25 03:27:20;;;;;;;4.40;1.58;;;-3.90;99.90;;;;;;5073727;28;20224;-77
2021/12/25 03:29:46;;;;;;;2.15;1.27;;;-3.90;99.90;;;;;;5074024;28;20193;-77
2021/12/25 03:32:13;;;;;;;1.50;1.10;;;-3.90;99.90;;;;;;5073680;28;20220;-77
2021/12/25 03:34:40;;;;;;;1.95;1.10;;;-3.90;99.90;;;;;;5073000;28;20193;-77
2021/12/25 03:37:06;;;;;;;2.15;1.00;;;-3.90;99.90;;;;;;5073542;28;20285;-77
2021/12/25 03:39:33;;;;;;;2.30;1.35;;;-3.90;99.90;;;;;;5073547;28;20225;-77
2021/12/25 03:42:00;;;;;;;2.40;1.40;;;-4.00;99.90;;;;;;5073734;28;20271;-77
2021/12/25 03:44:29;;;;;;;2.38;1.80;;;-3.90;99.90;;;;;;5073495;28;20185;-77
2021/12/25 03:47:00;;;;;;;3.17;1.38;;;-3.90;99.90;;;;;;5073648;28;20220;-77
2021/12/25 03:49:34;;;;;;;1.30;1.20;;;-3.90;99.90;;;;;;5073443;28;20607;-77
2021/12/25 03:57:42;;;;;;;3.28;2.00;;;-4.00;99.90;;;;;;5073256;28;20235;-77
2021/12/25 04:00:14;;;;;;;3.55;2.00;;;-4.00;99.90;;;;;;5073377;28;20189;-77
2021/12/25 04:02:52;;;;;;;3.25;1.98;;;-4.00;99.90;;;;;;5073153;28;20247;-75
2021/12/25 04:05:24;;;;;;;2.58;2.15;;;-4.20;99.90;;;;;;5073398;28;20189;-74
2021/12/25 04:08:02;;;;;;;2.25;2.03;;;-4.10;99.90;;;;;;5073189;28;20611;-74
2021/12/25 04:10:33;;;;;;;5.47;2.95;;;-4.20;99.90;;;;;;5073392;28;20193;-74
2021/12/25 04:13:00;;;;;;;3.80;2.75;;;-4.20;99.90;;;;;;5072847;28;20212;-74
2021/12/25 04:15:28;;;;;;;5.65;3.67;;;-4.30;99.90;;;;;;5073101;28;20280;-74
2021/12/25 04:17:55;;;;;;;6.28;3.40;;;-4.20;99.90;;;;;;5073063;28;20216;-74
2021/12/25 04:20:21;;;;;;;3.67;2.35;;;-4.30;99.90;;;;;;5073170;28;20244;-74
2021/12/25 04:22:53;;;;;;;4.32;2.08;;;-4.30;99.90;;;;;;5072827;28;20326;-77
2021/12/25 04:25:26;;;;;;;2.92;2.15;;;-4.30;99.90;;;;;;5073191;28;20208;-78
2021/12/25 04:27:52;;;;;;;5.07;3.85;;;-4.30;99.90;;;;;;5073122;28;20251;-77
2021/12/25 04:30:33;;;;;;;4.70;3.05;;;-4.30;99.90;;;;;;5073033;28;20190;-77
2021/12/25 04:50:04;;;;;;;5.75;4.22;;;-4.50;99.90;;;;;;5076769;28;20663;-78
2021/12/25 05:03:41;;;;;;;10.13;5.43;;;-4.60;99.90;;;;;;5076602;28;20192;-77
2021/12/25 05:06:08;;;;;;;10.38;5.05;;;-4.60;99.90;;;;;;5076660;28;20197;-77
2021/12/25 05:08:35;;;;;;;4.53;3.40;;;-4.60;99.90;;;;;;5076558;28;20229;-77
2021/12/25 05:11:02;;;;;;;5.60;3.30;;;-4.60;99.90;;;;;;5076507;28;20193;-77
2021/12/25 05:13:28;;;;;;;6.75;2.75;;;-4.60;99.90;;;;;;5076293;28;20752;-77
2021/12/25 05:15:55;;;;;;;5.72;4.30;;;-4.60;99.90;;;;;;5076546;28;20549;-78
2021/12/25 05:18:21;;;;;;;8.20;4.50;;;-4.60;99.90;;;;;;5076393;28;20280;-77
2021/12/25 05:20:48;;;;;;;5.57;3.30;;;-4.70;99.90;;;;;;5076284;28;20225;-77
2021/12/25 05:23:16;;;;;;;4.88;3.08;;;-4.60;99.90;;;;;;5076250;28;20221;-77
2021/12/25 05:25:43;;;;;;;5.63;3.08;;;-4.60;99.90;;;;;;5076179;28;20612;-77
2021/12/25 05:28:10;;;;;;;5.88;3.63;;;-4.60;99.90;;;;;;5076235;28;20243;-77
2021/12/25 05:30:37;;;;;;;4.38;2.67;;;-4.60;99.90;;;;;;5076227;28;20216;-76
2021/12/25 05:33:04;;;;;;;2.92;2.30;;;-4.60;99.90;;;;;;5076007;28;20300;-77
2021/12/25 05:35:31;;;;;;;6.78;3.13;;;-4.60;99.90;;;;;;5075996;28;20221;-77
2021/12/25 05:37:59;;;;;;;3.70;2.10;;;-4.60;99.90;;;;;;5075946;28;20225;-76
2021/12/25 05:40:27;;;;;;;3.83;3.10;;;-4.60;99.90;;;;;;5075784;28;20189;-77
2021/12/25 05:42:54;;;;;;;6.20;3.80;;;-4.60;99.90;;;;;;5075927;28;20637;-74
2021/12/25 05:45:20;;;;;;;4.13;2.50;;;-4.50;99.90;;;;;;5075727;28;20216;-75
2021/12/25 05:47:47;;;;;;;5.75;3.08;;;-4.50;99.90;;;;;;5075749;28;20189;-74
2021/12/25 05:50:13;;;;;;;3.30;3.00;;;-4.50;99.90;;;;;;5075715;28;20615;-74
2021/12/25 05:52:40;;;;;;;4.93;3.15;;;-4.50;99.90;;;;;;5075601;28;20280;-74
2021/12/25 05:55:07;;;;;;;3.60;2.65;;;-4.50;99.90;;;;;;5075485;28;20259;-74
2021/12/25 05:57:35;;;;;;;3.53;3.17;;;-4.50;99.90;;;;;;5074697;28;20619;-75
2021/12/25 06:00:01;;;;;;;4.72;3.20;;;-4.60;99.90;;;;;;5075392;28;20721;-74
2021/12/25 06:02:28;;;;;;;4.55;2.90;;;-4.60;99.90;;;;;;5075629;28;20221;-74
2021/12/25 06:04:54;;;;;;;4.50;3.13;;;-4.60;99.90;;;;;;5075311;28;20224;-74
2021/12/25 06:07:21;;;;;;;5.95;3.38;;;-4.60;99.90;;;;;;5075287;28;20276;-74
2021/12/25 06:09:47;;;;;;;5.25;3.40;;;-4.70;99.90;;;;;;5075122;28;20285;-74
2021/12/25 06:12:14;;;;;;;6.82;3.53;;;-4.70;99.90;;;;;;5075421;28;20220;-74
2021/12/25 06:14:44;;;;;;;6.47;3.45;;;-4.70;99.90;;;;;;5075083;28;20339;-74
2021/12/25 06:17:11;;;;;;;6.65;3.45;;;-4.70;99.90;;;;;;5075353;28;20196;-74
2021/12/25 06:19:37;;;;;;;5.75;3.35;;;-4.70;99.90;;;;;;5075181;28;20619;-74
2021/12/25 06:22:04;;;;;;;6.22;3.75;;;-4.80;99.90;;;;;;5074782;28;20309;-75
2021/12/25 06:24:31;;;;;;;5.90;2.53;;;-4.80;99.90;;;;;;5075227;28;20232;-74
2021/12/25 06:26:58;;;;;;;4.53;3.17;;;-4.80;99.90;;;;;;5075137;28;20288;-74
2021/12/25 06:29:24;;;;;;;4.53;2.75;;;-4.70;99.90;;;;;;5075134;28;20229;-74
2021/12/25 06:31:52;;;;;;;4.65;3.15;;;-4.70;99.90;;;;;;5075111;28;20288;-74
2021/12/25 06:34:19;;;;;;;6.57;3.50;;;-4.70;99.90;;;;;;5074721;28;20228;-74
2021/12/25 06:36:46;;;;;;;7.20;3.83;;;-4.70;99.90;;;;;;5074695;28;20281;-74
2021/12/25 06:39:15;;;;;;;4.85;3.70;;;-4.70;99.90;;;;;;5074867;28;20280;-75
2021/12/25 06:41:42;;;;;;;6.68;3.70;;;-4.80;99.90;;;;;;5074907;28;20199;-74
2021/12/25 06:44:08;;;;;;;6.00;4.00;;;-4.80;99.90;;;;;;5074699;28;20209;-74
2021/12/25 06:46:35;;;;;;;6.95;4.30;;;-4.80;99.90;;;;;;5074596;28;20221;-74
2021/12/25 06:49:03;;;;;;;7.28;4.18;;;-4.80;99.90;;;;;;5074806;28;20186;-74
2021/12/25 06:51:34;;;;;;;11.80;5.20;;;-4.80;99.90;;;;;;5074397;28;20185;-74
2021/12/25 06:54:01;;;;;;;7.43;4.85;;;-4.90;99.90;;;;;;5074580;28;20220;-74
2021/12/25 06:56:28;;;;;;;10.55;5.57;;;-4.80;99.90;;;;;;5074607;28;20224;-74
2021/12/25 06:58:54;;;;;;;7.75;5.50;;;-4.90;99.90;;;;;;5074529;28;20238;-74
2021/12/25 07:01:21;;;;;;;9.38;5.78;;;-4.90;99.90;;;;;;5074253;28;20272;-74
2021/12/25 07:03:47;;;;;;;6.20;5.03;;;-4.90;99.90;;;;;;5074170;28;20276;-74
2021/12/25 07:06:16;;;;;;;8.90;4.82;;;-4.90;99.90;;;;;;5074275;28;20275;-78
2021/12/25 07:08:42;;;;;;;8.23;5.03;;;-4.90;99.90;;;;;;5074187;28;20284;-77
2021/12/25 07:11:09;;;;;;;13.57;6.18;;;-4.80;99.90;;;;;;5074268;28;20220;-77
2021/12/25 07:13:35;;;;;;;10.85;6.95;;;-4.80;99.90;;;;;;5074029;28;20237;-77
2021/12/25 07:16:02;;;;;;;9.55;5.32;;;-4.90;99.90;;;;;;5074038;28;20193;-77
2021/12/25 07:18:29;;;;;;;10.02;6.00;;;-4.90;99.90;;;;;;5074004;28;20216;-77
2021/12/25 07:20:55;;;;;;;9.63;5.60;;;-4.90;99.90;;;;;;5073890;28;20271;-77
2021/12/25 07:23:23;;;;;;;10.25;6.30;;;-4.90;99.90;;;;;;5074052;28;20293;-77
2021/12/25 07:25:50;;;;;;;8.13;5.38;;;-4.90;99.90;;;;;;5073857;28;20551;-77
2021/12/25 07:28:16;;;;;;;10.27;5.70;;;-4.90;99.90;;;;;;5073827;28;20276;-77
2021/12/25 07:30:43;;;;;;;17.52;7.35;;;-4.90;99.90;;;;;;5073708;28;20217;-77
2021/12/25 07:33:09;;;;;;;11.30;7.03;;;-4.90;99.90;;;;;;5073656;28;20276;-77
2021/12/25 07:35:36;;;;;;;13.48;7.18;;;-4.90;99.90;;;;;;5073953;28;20280;-77
2021/12/25 07:38:03;;;;;;;10.82;7.88;;;-4.80;99.90;;;;;;5073699;28;20197;-77
2021/12/25 07:40:31;;;;;;;15.80;9.25;;;-4.90;99.90;;;;;;5073669;28;20276;-77
2021/12/25 07:42:58;;;;;;;11.95;6.95;;;-4.80;99.90;;;;;;5073483;28;20272;-77
2021/12/25 07:45:24;;;;;;;9.05;7.47;;;-4.80;99.90;;;;;;5073442;28;20287;-77
2021/12/25 07:47:58;;;;;;;13.48;7.60;;;-4.80;99.90;;;;;;5073783;28;20221;-78
2021/12/25 07:50:25;;;;;;;8.05;5.78;;;-4.80;99.90;;;;;;5073635;28;20243;-77
2021/12/25 07:52:52;;;;;;;8.25;6.25;;;-4.80;99.90;;;;;;5073484;28;20284;-77
2021/12/25 07:55:19;;;;;;;6.90;5.28;;;-4.80;99.90;;;;;;5073234;28;20316;-77
2021/12/25 07:57:47;;;;;;;8.95;4.82;;;-4.70;99.90;;;;;;5073280;28;20267;-78
2021/12/25 08:00:15;;;;;;;8.55;5.45;;;-4.70;99.90;;;;;;5073135;28;20283;-77
2021/12/25 08:02:44;;;;;;;8.73;5.78;;;-4.70;99.90;;;;;;5073431;28;20280;-77
2021/12/25 08:05:11;;;;;;;14.07;4.45;;;-4.80;99.90;;;;;;5073285;28;20288;-77
2021/12/25 08:07:38;;;;;;;6.47;3.55;;;-4.70;99.90;;;;;;5073280;28;20348;-77
2021/12/25 08:10:13;;;;;;;5.13;3.40;;;-4.60;99.90;;;;;;5073133;28;20303;-77
2021/12/25 08:12:41;;;;;;;5.22;3.05;;;-4.60;99.90;;;;;;5073166;28;20611;-77
2021/12/25 08:15:10;;;;;;;4.82;3.10;;;-4.50;99.90;;;;;;5073276;28;20304;-77
2021/12/25 08:17:36;;;;;;;4.15;2.45;;;-4.50;99.90;;;;;;5073173;28;20276;-77
2021/12/25 08:20:04;;;;;;;6.75;3.40;;;-4.40;99.90;;;;;;5072932;28;20280;-77
2021/12/25 08:22:31;;;;;;;3.05;2.50;;;-4.30;99.90;;;;;;5073028;28;20260;-77
2021/12/25 08:24:57;;;;;;;2.85;2.10;;;-4.30;99.90;;;;;;5072997;28;20224;-77
2021/12/25 08:27:24;;;;;;;3.05;2.03;;;-4.20;99.90;;;;;;5073018;28;20308;-77
2021/12/25 08:29:51;;;;;;;3.17;2.38;;;-4.20;99.90;;;;;;5073172;28;20280;-77
2021/12/25 08:32:18;;;;;;;4.60;1.63;;;-4.10;99.90;;;;;;5072913;28;20221;-77
2021/12/25 08:34:45;;;;;;;2.20;1.95;;;-4.10;99.90;;;;;;5072777;28;20776;-77
2021/12/25 08:37:12;;;;;;;5.63;1.90;;;-4.10;99.90;;;;;;5072774;28;20296;-77
2021/12/25 08:39:39;;;;;;;4.38;1.70;;;-4.00;99.90;;;;;;5072915;28;20217;-77
2021/12/25 08:42:08;;;;;;;4.47;1.90;;;-4.00;99.90;;;;;;5072894;28;20236;-77
2021/12/25 08:44:40;;;;;;;4.70;2.20;;;-3.90;99.90;;;;;;5073054;28;20192;-77
2021/12/25 08:47:10;;;;;;;9.40;2.00;;;-3.90;99.90;;;;;;5072799;28;20189;-77
2021/12/25 08:49:42;;;;;;;1.73;1.50;;;-3.80;99.90;;;;;;5072815;28;20229;-77
2021/12/25 08:52:11;;;;;;;1.73;1.63;;;-3.70;99.90;;;;;;5072650;28;20332;-77
2021/12/25 08:54:38;;;;;;;2.00;1.80;;;-3.70;99.90;;;;;;5072482;28;20315;-77
2021/12/25 08:57:07;;;;;;;2.08;1.70;;;-3.60;99.90;;;;;;5072648;28;20623;-77
2021/12/25 08:59:35;;;;;;;2.35;1.77;;;-3.60;99.90;;;;;;5072640;28;20280;-77
2021/12/25 09:02:04;;;;;;;1.83;1.60;;;-3.60;99.90;;;;;;5072580;28;20224;-77
2021/12/25 09:04:31;;;;;;;2.97;2.50;;;-3.50;99.90;;;;;;5072564;28;20203;-78
2021/12/25 09:06:59;;;;;;;7.65;2.38;;;-3.40;99.90;;;;;;5072669;28;20299;-77
2021/12/25 09:09:25;;;;;;;2.65;2.15;;;-3.40;99.90;;;;;;5072409;28;20194;-77
2021/12/25 09:11:52;;;;;;;2.45;2.22;;;-3.20;99.90;;;;;;5072502;28;20277;-77
2021/12/25 09:14:19;;;;;;;3.03;2.30;;;-3.30;99.90;;;;;;5072535;28;20308;-77
2021/12/25 09:16:45;;;;;;;3.72;2.20;;;-3.20;99.90;;;;;;5072637;28;20326;-77
2021/12/25 09:19:12;;;;;;;3.67;2.92;;;-3.20;99.90;;;;;;5072476;28;20228;-77
2021/12/25 09:21:39;;;;;;;3.25;2.00;;;-3.20;99.90;;;;;;5072077;28;20739;-77
2021/12/25 09:24:07;;;;;;;3.80;2.92;;;-3.10;99.90;;;;;;5072647;28;20231;-78
2021/12/25 09:26:33;;;;;;;4.65;2.00;;;-3.10;99.90;;;;;;5072606;28;20285;-77
2021/12/25 09:29:00;;;;;;;4.03;2.30;;;-3.10;99.90;;;;;;5072403;28;20278;-77
2021/12/25 09:31:27;;;;;;;3.08;2.22;;;-3.10;99.90;;;;;;5072308;28;20611;-77
2021/12/25 09:33:54;;;;;;;3.35;2.63;;;-3.00;99.90;;;;;;5075857;28;20300;-77
2021/12/25 09:36:22;;;;;;;3.75;2.20;;;-3.00;99.90;;;;;;5075977;28;20221;-78
2021/12/25 09:38:49;;;;;;;3.03;2.00;;;-3.00;99.90;;;;;;5075995;28;20633;-77
2021/12/25 09:41:18;;;;;;;5.13;2.08;;;-2.90;99.90;;;;;;5075683;28;20668;-77
2021/12/25 09:43:47;;;;;;;5.53;2.38;;;-2.90;99.90;;;;;;5075850;28;20683;-77
2021/12/25 09:46:14;;;;;;;5.43;2.80;;;-2.90;99.90;;;;;;5075640;28;20221;-77
2021/12/25 09:48:40;;;;;;;5.70;3.30;;;-2.80;99.90;;;;;;5075964;28;20280;-78
2021/12/25 09:51:07;;;;;;;2.90;2.67;;;-2.80;99.90;;;;;;5075849;28;20277;-77
2021/12/25 09:53:34;;;;;;;4.10;3.22;;;-2.80;99.90;;;;;;5075662;28;20220;-77
2021/12/25 09:56:01;;;;;;;3.80;3.50;;;-2.80;99.90;;;;;;5075623;28;20311;-77
2021/12/25 09:58:30;;;;;;;3.70;3.40;;;-2.70;99.90;;;;;;5075516;28;20227;-77
2021/12/25 10:00:57;;;;;;;6.53;3.50;;;-2.70;99.90;;;;;;5075417;28;20231;-77
2021/12/25 10:03:24;;;;;;;4.88;3.40;;;-2.70;99.90;;;;;;5075526;28;20239;-77
2021/12/25 10:05:53;;;;;;;6.03;3.63;;;-2.70;99.90;;;;;;5075582;28;20673;-77
2021/12/25 10:08:22;;;;;;;3.67;3.35;;;-2.60;99.90;;;;;;5075379;28;20271;-77
2021/12/25 10:10:51;;;;;;;5.00;3.38;;;-2.60;99.90;;;;;;5075436;28;20622;-77
2021/12/25 10:13:24;;;;;;;4.03;3.22;;;-2.60;99.90;;;;;;5075818;28;20251;-77
2021/12/25 10:15:54;;;;;;;3.67;3.03;;;-2.50;99.90;;;;;;5075396;28;20221;-77
2021/12/25 10:18:29;;;;;;;4.13;3.25;;;-2.50;99.90;;;;;;5075366;28;20189;-77
2021/12/25 10:20:56;;;;;;;5.50;3.10;;;-2.50;99.90;;;;;;5075025;28;20263;-77
2021/12/25 10:23:28;;;;;;;5.43;3.65;;;-2.40;99.90;;;;;;5074982;28;20285;-77
2021/12/25 10:25:57;;;;;;;4.20;3.50;;;-2.40;99.90;;;;;;5074960;28;20645;-77
2021/12/25 10:28:29;;;;;;;3.25;2.95;;;-2.40;99.90;;;;;;5075131;28;20663;-77
2021/12/25 10:30:59;;;;;;;3.40;2.80;;;-2.30;99.90;;;;;;5075060;28;20295;-78
2021/12/25 10:33:34;;;;;;;2.67;2.47;;;-2.30;99.90;;;;;;5075266;28;20198;-77
2021/12/25 10:36:04;;;;;;;5.90;2.60;;;-2.30;99.90;;;;;;5075029;28;20714;-77
2021/12/25 10:38:31;;;;;;;6.10;2.90;;;-2.30;99.90;;;;;;5074844;28;20723;-77
2021/12/25 10:41:22;;;;;;;7.50;3.28;;;-2.30;99.90;;;;;;5074761;28;20552;-75
2021/12/25 10:43:53;;;;;;;3.92;2.90;;;-2.20;99.90;;;;;;5070290;28;20189;-74
2021/12/25 10:46:21;;;;;;;5.82;2.60;;;-2.20;99.90;;;;;;5074672;28;20740;-74
2021/12/25 10:48:48;;;;;;;4.70;3.05;;;-2.20;99.90;;;;;;5074522;28;20189;-74
2021/12/25 10:51:26;;;;;;;2.60;2.38;;;-2.10;99.90;;;;;;5074729;28;20283;-75
2021/12/25 10:53:54;;;;;;;4.75;2.42;;;-2.10;99.90;;;;;;5074628;28;20193;-74
2021/12/25 10:56:21;;;;;;;2.25;1.90;;;-2.10;99.90;;;;;;5074447;28;20279;-75
2021/12/25 10:58:48;;;;;;;5.30;2.65;;;-2.10;99.90;;;;;;5074413;28;20196;-74
2021/12/25 11:01:17;;;;;;;7.45;2.78;;;-2.10;99.90;;;;;;5074302;28;20280;-74
2021/12/25 11:03:46;;;;;;;6.45;2.65;;;-2.10;99.90;;;;;;5074711;28;20185;-75
2021/12/25 11:06:16;;;;;;;4.10;2.00;;;-2.10;99.90;;;;;;5074649;28;20228;-75
2021/12/25 11:08:44;;;;;;;3.45;2.10;;;-2.10;99.90;;;;;;5074472;28;20609;-75
2021/12/25 11:11:13;;;;;;;3.15;1.92;;;-2.00;99.90;;;;;;5074310;28;20194;-74
2021/12/25 11:13:41;;;;;;;2.15;1.95;;;-2.00;99.90;;;;;;5074156;28;20193;-75
2021/12/25 11:16:22;;;;;;;3.35;2.20;;;-2.00;99.90;;;;;;5074312;28;20232;-75
2021/12/25 11:19:01;;;;;;;4.30;2.25;;;-2.00;99.90;;;;;;5074188;28;20185;-75
2021/12/25 11:21:28;;;;;;;2.95;2.55;;;-2.00;99.90;;;;;;5074023;28;20243;-75
2021/12/25 11:24:05;;;;;;;1.83;1.73;;;-2.00;99.90;;;;;;5073779;28;20193;-75
2021/12/25 11:26:32;;;;;;;1.98;1.55;;;-2.00;99.90;;;;;;5074301;28;20203;-75
2021/12/25 11:28:58;;;;;;;7.13;2.15;;;-1.90;99.90;;;;;;5074000;28;20617;-74
2021/12/25 11:31:25;;;;;;;2.00;1.67;;;-1.90;99.90;;;;;;5073825;28;20221;-74
2021/12/25 11:33:53;;;;;;;1.95;1.77;;;-1.90;99.90;;;;;;5073790;28;20284;-74
2021/12/25 11:36:19;;;;;;;6.35;1.85;;;-1.90;99.90;;;;;;5073679;28;20217;-74
2021/12/25 11:38:46;;;;;;;3.55;1.63;;;-1.90;99.90;;;;;;5073599;28;20280;-75
2021/12/25 11:41:13;;;;;;;4.07;2.10;;;-1.90;99.90;;;;;;5073825;28;20280;-75
2021/12/25 11:43:43;;;;;;;5.85;2.78;;;-1.90;99.90;;;;;;5073404;28;20280;-74
2021/12/25 11:46:11;;;;;;;3.25;3.05;;;-1.80;99.90;;;;;;5073542;28;20718;-74
2021/12/25 11:48:39;;;;;;;2.20;2.00;;;-1.80;99.90;;;;;;5073560;28;20310;-75
2021/12/25 11:51:23;;;;;;;3.42;1.70;;;-1.80;99.90;;;;;;5073454;28;20280;-75
2021/12/25 11:54:03;;;;;;;3.83;2.25;;;-1.80;99.90;;;;;;5073076;28;20224;-75
2021/12/25 11:56:36;;;;;;;4.90;1.90;;;-1.80;99.90;;;;;;5072988;28;20216;-74
2021/12/25 11:59:11;;;;;;;2.28;1.75;;;-1.80;99.90;;;;;;5073333;28;20189;-75
2021/12/25 12:01:41;;;;;;;5.18;2.10;;;-1.80;99.90;;;;;;5073203;28;20275;-75
2021/12/25 12:04:16;;;;;;;4.55;2.10;;;-1.80;99.90;;;;;;5073166;28;20193;-75
2021/12/25 12:07:08;;;;;;;2.15;1.85;;;-1.80;99.90;;;;;;5073461;28;20220;-75
2021/12/25 12:09:52;;;;;;;2.10;1.80;;;-1.80;99.90;;;;;;5073157;28;20193;-75
2021/12/25 12:12:21;;;;;;;2.58;2.25;;;-1.80;99.90;;;;;;5073116;28;20197;-75
2021/12/25 12:15:08;;;;;;;2.40;2.03;;;-1.80;99.90;;;;;;5073110;28;20308;-74
2021/12/25 12:17:36;;;;;;;3.95;2.80;;;-1.80;99.90;;;;;;5073013;28;20284;-74
2021/12/25 12:20:06;;;;;;;3.63;2.10;;;-1.80;99.90;;;;;;5073072;28;20189;-75
2021/12/25 12:25:31;;;;;;;2.40;2.20;;;-1.70;99.90;;;;;;5071007;28;20181;-75
2021/12/25 12:28:00;;;;;;;3.15;2.55;;;-1.70;99.90;;;;;;5073120;28;20349;-75
2021/12/25 12:30:49;;;;;;;5.97;2.08;;;-1.70;99.90;;;;;;5073258;28;20276;-74
2021/12/25 12:33:36;;;;;;;3.17;1.73;;;-1.70;99.90;;;;;;5073047;28;20193;-75
2021/12/25 12:36:05;;;;;;;2.80;1.95;;;-1.70;99.90;;;;;;5072958;28;20619;-75
2021/12/25 12:38:38;;;;;;;3.30;1.90;;;-1.70;99.90;;;;;;5072811;28;20564;-75
2021/12/25 12:41:21;;;;;;;4.88;2.05;;;-1.70;99.90;;;;;;5072905;28;20200;-74
2021/12/25 12:43:55;;;;;;;2.60;1.90;;;-1.70;99.90;;;;;;5073019;28;20636;-75
2021/12/25 12:46:22;;;;;;;2.45;2.08;;;-1.70;99.90;;;;;;5072862;28;20722;-75
2021/12/25 12:49:03;;;;;;;2.15;1.95;;;-1.70;99.90;;;;;;5072802;28;20217;-75
2021/12/25 12:51:31;;;;;;;2.42;1.67;;;-1.70;99.90;;;;;;5072937;28;20274;-75
2021/12/25 12:53:59;;;;;;;5.28;2.00;;;-1.70;99.90;;;;;;5072630;28;20258;-75
2021/12/25 12:56:26;;;;;;;2.22;2.03;;;-1.70;99.90;;;;;;5072816;28;20304;-75
2021/12/25 12:58:54;;;;;;;2.20;1.73;;;-1.70;99.90;;;;;;5072994;28;20626;-75
2021/12/25 13:01:21;;;;;;;3.40;2.00;;;-1.70;99.90;;;;;;5072702;28;20275;-74
2021/12/25 13:03:54;;;;;;;2.50;2.13;;;-1.70;99.90;;;;;;5072614;28;20600;-75
2021/12/25 13:06:21;;;;;;;2.40;1.70;;;-1.70;99.90;;;;;;5074072;28;20275;-75
2021/12/25 13:08:48;;;;;;;2.55;1.80;;;-1.70;99.90;;;;;;5076366;28;20824;-75
2021/12/25 13:11:22;;;;;;;4.90;2.88;;;-1.70;99.90;;;;;;5076752;28;20193;-75
2021/12/25 13:13:53;;;;;;;4.15;2.10;;;-1.70;99.90;;;;;;5076416;28;20556;-75
2021/12/25 13:16:24;;;;;;;4.03;2.13;;;-1.70;99.90;;;;;;5076390;28;20216;-75
2021/12/25 13:18:53;;;;;;;4.18;3.20;;;-1.70;99.90;;;;;;5076416;28;20189;-75
2021/12/25 13:21:22;;;;;;;3.95;2.53;;;-1.70;99.90;;;;;;5076442;28;20217;-75
2021/12/25 13:23:53;;;;;;;3.53;2.00;;;-1.80;99.90;;;;;;5076337;28;20367;-75
2021/12/25 13:26:23;;;;;;;2.08;1.98;;;-1.80;99.90;;;;;;5076490;28;20193;-75
2021/12/25 13:28:51;;;;;;;3.67;2.20;;;-1.80;99.90;;;;;;5076144;28;20193;-75
2021/12/25 13:31:20;;;;;;;4.03;1.77;;;-1.80;99.90;;;;;;5076113;28;20193;-75
2021/12/25 13:33:49;;;;;;;3.55;2.30;;;-1.70;99.90;;;;;;5076124;28;20217;-74
2021/12/25 13:36:19;;;;;;;2.45;2.15;;;-1.70;99.90;;;;;;5076433;28;20384;-75
2021/12/25 13:38:49;;;;;;;2.03;1.83;;;-1.70;99.90;;;;;;5076022;28;20200;-75
2021/12/25 13:41:29;;;;;;;1.88;1.73;;;-1.70;99.90;;;;;;5076037;28;20708;-75
2021/12/25 13:44:06;;;;;;;3.55;2.05;;;-1.70;99.90;;;;;;5075714;28;20250;-75